Time;durP1;ratioP1;P1;durP2;ratioP2;P2;SDS_P1;SDS_P2;PMS_P1;PMS_P2;Temp;Humidity;BMP_temperature;BMP_pressure;BME280_temperature;BME280_humidity;BME280_pressure;Samples;Min_cycle;Max_cycle;Signal;HPM_P1;HPM_P2
2021/03/18 00:01:19;;;;;;;8.95;3.28;;;;;;;;;;4974577;28;20102;-61
2021/03/18 00:03:45;;;;;;;11.85;3.35;;;;;;;;;;4974364;28;20102;-60
2021/03/18 00:06:11;;;;;;;11.45;4.43;;;;;;;;;;4972751;28;20073;-60
2021/03/18 00:08:37;;;;;;;9.48;4.03;;;;;;;;;;4974102;28;20058;-61
2021/03/18 00:11:05;;;;;;;12.90;2.67;;;;;;;;;;4974196;28;20054;-60
2021/03/18 00:13:31;;;;;;;12.95;3.15;;;;;;;;;;4974288;28;20031;-61
2021/03/18 00:15:57;;;;;;;5.45;3.25;;;;;;;;;;4974072;28;20019;-60
2021/03/18 00:18:25;;;;;;;13.75;4.25;;;;;;;;;;4974162;28;20488;-61
2021/03/18 00:20:50;;;;;;;21.17;3.00;;;;;;;;;;4977226;28;20023;-60
2021/03/18 00:23:15;;;;;;;19.10;4.43;;;;;;;;;;4977853;28;20030;-60
2021/03/18 00:25:41;;;;;;;14.25;5.57;;;;;;;;;;4977503;28;20461;-60
2021/03/18 00:28:07;;;;;;;6.38;4.38;;;;;;;;;;4977607;28;20022;-61
2021/03/18 00:30:33;;;;;;;6.35;2.67;;;;;;;;;;4978073;28;20050;-61
2021/03/18 00:32:58;;;;;;;7.82;3.40;;;;;;;;;;4977287;28;20122;-60
2021/03/18 00:35:24;;;;;;;7.25;3.28;;;;;;;;;;4977935;28;20077;-61
2021/03/18 00:37:50;;;;;;;17.10;4.55;;;;;;;;;;4977604;28;20018;-62
2021/03/18 00:40:18;;;;;;;5.57;2.50;;;;;;;;;;4977785;28;20026;-61
2021/03/18 00:42:51;;;;;;;6.07;3.00;;;;;;;;;;4977166;28;20058;-61
2021/03/18 00:45:17;;;;;;;9.95;3.33;;;;;;;;;;4960027;28;20067;-60
2021/03/18 00:47:42;;;;;;;14.10;3.00;;;;;;;;;;4960132;28;20023;-61
2021/03/18 00:50:08;;;;;;;13.15;3.47;;;;;;;;;;4978109;28;20106;-61
2021/03/18 00:52:34;;;;;;;6.65;2.72;;;;;;;;;;4960010;28;20129;-61
2021/03/18 00:54:59;;;;;;;16.00;3.60;;;;;;;;;;4977773;28;20113;-61
2021/03/18 00:57:24;;;;;;;13.82;3.50;;;;;;;;;;4977235;28;20037;-61
2021/03/18 00:59:50;;;;;;;20.05;3.55;;;;;;;;;;4978145;28;20374;-61
2021/03/18 01:02:16;;;;;;;4.10;2.40;;;;;;;;;;4977577;28;20065;-61
2021/03/18 01:04:42;;;;;;;10.02;3.47;;;;;;;;;;4977429;28;20026;-61
2021/03/18 01:07:08;;;;;;;6.22;2.67;;;;;;;;;;4959755;28;20369;-61
2021/03/18 01:09:33;;;;;;;9.30;3.08;;;;;;;;;;4959785;28;20023;-61
2021/03/18 01:11:58;;;;;;;14.10;3.70;;;;;;;;;;4976941;28;20034;-61
2021/03/18 01:14:24;;;;;;;4.22;2.47;;;;;;;;;;4977145;28;20425;-61
2021/03/18 01:16:50;;;;;;;8.95;1.88;;;;;;;;;;4977346;28;20097;-61
2021/03/18 01:19:17;;;;;;;15.43;1.77;;;;;;;;;;4977339;28;20025;-61
2021/03/18 01:21:44;;;;;;;8.20;3.10;;;;;;;;;;4976809;28;20097;-61
2021/03/18 01:24:10;;;;;;;4.60;1.88;;;;;;;;;;4976626;28;20034;-61
2021/03/18 01:26:35;;;;;;;5.22;2.90;;;;;;;;;;4976803;28;20089;-61
2021/03/18 01:29:01;;;;;;;12.90;3.47;;;;;;;;;;4976472;28;20477;-61
2021/03/18 01:31:26;;;;;;;3.80;1.85;;;;;;;;;;4975366;28;20437;-61
2021/03/18 01:33:51;;;;;;;5.40;1.50;;;;;;;;;;4977013;28;20086;-61
2021/03/18 01:36:17;;;;;;;10.48;2.55;;;;;;;;;;4976600;28;20062;-61
2021/03/18 01:38:44;;;;;;;4.63;2.22;;;;;;;;;;4976575;28;20054;-61
2021/03/18 01:41:09;;;;;;;1.92;1.23;;;;;;;;;;4976452;28;20018;-61
2021/03/18 01:43:35;;;;;;;10.95;2.38;;;;;;;;;;4976284;28;20488;-61
2021/03/18 01:46:00;;;;;;;14.85;2.60;;;;;;;;;;4976066;28;20023;-61
2021/03/18 01:48:26;;;;;;;7.53;2.78;;;;;;;;;;4959124;28;20070;-61
2021/03/18 01:50:52;;;;;;;15.60;2.85;;;;;;;;;;4976179;28;20026;-61
2021/03/18 01:53:21;;;;;;;10.95;2.38;;;;;;;;;;4975878;28;20066;-62
2021/03/18 01:55:47;;;;;;;6.47;2.17;;;;;;;;;;4975939;28;20046;-61
2021/03/18 01:58:13;;;;;;;6.25;2.25;;;;;;;;;;4976713;28;20043;-61
2021/03/18 02:00:40;;;;;;;6.57;1.90;;;;;;;;;;4958788;28;20015;-61
2021/03/18 02:03:05;;;;;;;3.72;1.35;;;;;;;;;;4975975;28;20331;-60
2021/03/18 02:05:31;;;;;;;8.25;2.20;;;;;;;;;;4976028;28;20082;-61
2021/03/18 02:07:57;;;;;;;8.10;2.65;;;;;;;;;;4975844;28;20069;-61
2021/03/18 02:10:23;;;;;;;1.63;0.65;;;;;;;;;;4976180;28;20398;-61
2021/03/18 02:12:49;;;;;;;10.95;2.17;;;;;;;;;;4976062;28;20031;-61
2021/03/18 02:15:15;;;;;;;3.17;1.58;;;;;;;;;;4976808;28;20334;-61
2021/03/18 02:17:40;;;;;;;4.25;1.90;;;;;;;;;;4975808;28;20018;-61
2021/03/18 02:20:24;;;;;;;2.20;1.08;;;;;;;;;;4976128;28;20034;-60
2021/03/18 02:23:12;;;;;;;3.72;1.70;;;;;;;;;;4976033;28;20357;-61
2021/03/18 02:25:42;;;;;;;9.27;2.50;;;;;;;;;;4948010;28;20039;-61
2021/03/18 02:28:25;;;;;;;2.97;1.08;;;;;;;;;;4975236;28;20025;-61
2021/03/18 02:30:54;;;;;;;2.70;1.73;;;;;;;;;;4976126;28;20054;-61
2021/03/18 02:33:36;;;;;;;0.75;0.60;;;;;;;;;;4975559;28;20062;-61
2021/03/18 02:36:02;;;;;;;1.75;1.02;;;;;;;;;;4975800;28;20022;-61
2021/03/18 02:38:32;;;;;;;7.15;1.48;;;;;;;;;;4975420;28;20026;-61
2021/03/18 02:41:02;;;;;;;1.10;0.60;;;;;;;;;;4975400;28;20500;-61
2021/03/18 02:43:29;;;;;;;6.63;2.05;;;;;;;;;;4975631;28;20315;-61
2021/03/18 02:45:57;;;;;;;23.20;1.65;;;;;;;;;;4975563;28;20041;-61
2021/03/18 02:48:32;;;;;;;6.10;1.65;;;;;;;;;;4975603;28;20026;-61
2021/03/18 02:50:58;;;;;;;6.20;2.78;;;;;;;;;;4964778;28;20019;-61
2021/03/18 02:53:25;;;;;;;2.88;0.47;;;;;;;;;;4955807;29;20090;-61
2021/03/18 02:55:51;;;;;;;4.18;1.90;;;;;;;;;;4956491;29;20102;-60
2021/03/18 02:58:21;;;;;;;3.10;1.40;;;;;;;;;;4955814;29;20106;-61
2021/03/18 03:00:48;;;;;;;1.95;0.68;;;;;;;;;;4955469;29;20028;-60
2021/03/18 03:03:14;;;;;;;7.75;1.85;;;;;;;;;;4938698;29;20043;-60
2021/03/18 03:05:40;;;;;;;4.57;1.67;;;;;;;;;;4955649;29;20019;-60
2021/03/18 03:08:07;;;;;;;1.70;0.57;;;;;;;;;;4956507;29;20015;-59
2021/03/18 03:10:33;;;;;;;0.85;0.35;;;;;;;;;;4955646;29;20015;-60
2021/03/18 03:12:59;;;;;;;11.63;1.25;;;;;;;;;;4955386;29;20435;-59
2021/03/18 03:15:28;;;;;;;8.15;1.42;;;;;;;;;;4955427;29;20094;-60
2021/03/18 03:17:55;;;;;;;4.50;1.50;;;;;;;;;;4955530;29;20396;-59
2021/03/18 03:20:21;;;;;;;1.75;0.93;;;;;;;;;;4955975;29;20018;-60
2021/03/18 03:22:46;;;;;;;5.53;1.65;;;;;;;;;;4955409;29;20023;-60
2021/03/18 03:25:13;;;;;;;3.75;1.33;;;;;;;;;;4955534;29;20031;-60
2021/03/18 03:27:41;;;;;;;3.10;1.48;;;;;;;;;;4955038;29;20403;-60
2021/03/18 03:30:09;;;;;;;7.45;1.63;;;;;;;;;;4955728;29;20047;-59
2021/03/18 03:32:34;;;;;;;5.18;1.92;;;;;;;;;;4955092;29;20342;-59
2021/03/18 03:35:00;;;;;;;1.05;0.50;;;;;;;;;;4955866;29;20078;-59
2021/03/18 03:37:25;;;;;;;2.65;1.05;;;;;;;;;;4955244;29;20015;-59
2021/03/18 03:39:51;;;;;;;0.60;0.28;;;;;;;;;;4955800;29;20362;-59
2021/03/18 03:42:16;;;;;;;2.13;0.70;;;;;;;;;;4955464;29;20053;-59
2021/03/18 03:44:42;;;;;;;2.25;0.95;;;;;;;;;;4938494;29;20082;-59
2021/03/18 03:47:08;;;;;;;5.78;1.45;;;;;;;;;;4954800;29;20081;-59
2021/03/18 03:49:34;;;;;;;5.28;0.52;;;;;;;;;;4955398;29;20027;-59
2021/03/18 03:52:14;;;;;;;1.20;0.30;;;;;;;;;;4954809;29;20034;-59
2021/03/18 03:54:42;;;;;;;2.07;0.70;;;;;;;;;;4957159;28;20359;-59
2021/03/18 03:57:14;;;;;;;7.93;0.90;;;;;;;;;;4959337;29;20026;-59
2021/03/18 03:59:40;;;;;;;1.73;0.85;;;;;;;;;;4959569;29;20153;-59
2021/03/18 04:02:06;;;;;;;0.93;0.40;;;;;;;;;;4958643;29;20486;-59
2021/03/18 04:04:42;;;;;;;1.85;0.50;;;;;;;;;;4958496;28;20143;-60
2021/03/18 04:07:09;;;;;;;2.83;1.25;;;;;;;;;;4958603;29;20485;-59
2021/03/18 04:09:36;;;;;;;7.05;0.73;;;;;;;;;;4959155;29;20034;-60
2021/03/18 04:12:03;;;;;;;2.97;0.65;;;;;;;;;;4958801;29;20476;-59
2021/03/18 04:14:30;;;;;;;1.85;0.57;;;;;;;;;;4959279;29;20045;-60
2021/03/18 04:16:59;;;;;;;2.08;1.35;;;;;;;;;;4958668;29;20027;-59
2021/03/18 04:19:24;;;;;;;2.05;0.90;;;;;;;;;;4959030;29;20114;-59
2021/03/18 04:21:51;;;;;;;1.40;0.68;;;;;;;;;;4958683;29;20457;-59
2021/03/18 04:24:17;;;;;;;3.67;0.82;;;;;;;;;;4958701;29;20030;-59
2021/03/18 04:26:43;;;;;;;1.85;1.23;;;;;;;;;;4958290;29;20027;-59
2021/03/18 04:29:09;;;;;;;2.88;1.13;;;;;;;;;;4958602;29;20058;-60
2021/03/18 04:31:38;;;;;;;4.25;1.02;;;;;;;;;;4958630;29;20074;-59
2021/03/18 04:34:04;;;;;;;3.13;1.45;;;;;;;;;;4958484;29;20097;-59
2021/03/18 04:36:30;;;;;;;3.80;1.55;;;;;;;;;;4958897;29;20023;-59
2021/03/18 04:38:55;;;;;;;1.38;0.52;;;;;;;;;;4958589;29;20023;-59
2021/03/18 04:41:21;;;;;;;1.13;0.40;;;;;;;;;;4957973;29;20015;-59
2021/03/18 04:43:46;;;;;;;5.88;0.40;;;;;;;;;;4957954;29;20059;-59
2021/03/18 04:49:16;;;;;;;5.03;0.85;;;;;;;;;;4958419;29;20123;-59
2021/03/18 04:51:45;;;;;;;2.60;0.75;;;;;;;;;;4957946;29;20027;-59
2021/03/18 04:54:11;;;;;;;9.93;1.63;;;;;;;;;;4958028;29;20394;-59
2021/03/18 04:56:38;;;;;;;10.82;1.55;;;;;;;;;;4958248;29;20015;-60
2021/03/18 04:59:03;;;;;;;2.40;1.15;;;;;;;;;;4957923;29;20401;-59
2021/03/18 05:01:30;;;;;;;4.38;1.58;;;;;;;;;;4957859;29;20090;-62
2021/03/18 05:03:56;;;;;;;6.72;1.52;;;;;;;;;;4957682;29;20037;-62
2021/03/18 05:06:22;;;;;;;1.25;0.55;;;;;;;;;;4957568;28;20023;-62
2021/03/18 05:08:47;;;;;;;1.92;0.95;;;;;;;;;;4957893;29;20027;-62
2021/03/18 05:11:13;;;;;;;6.88;2.03;;;;;;;;;;4957752;29;20030;-59
2021/03/18 05:13:39;;;;;;;5.43;1.35;;;;;;;;;;4957967;29;20461;-60
2021/03/18 05:16:04;;;;;;;4.20;2.05;;;;;;;;;;4957673;29;20441;-59
2021/03/18 05:18:30;;;;;;;3.15;0.95;;;;;;;;;;4957583;29;20447;-59
2021/03/18 05:20:56;;;;;;;2.08;1.13;;;;;;;;;;4957818;29;20034;-59
2021/03/18 05:23:23;;;;;;;5.38;1.48;;;;;;;;;;4957831;29;20350;-60
2021/03/18 05:25:49;;;;;;;5.28;1.25;;;;;;;;;;4957440;29;20023;-60
2021/03/18 05:28:14;;;;;;;3.05;1.13;;;;;;;;;;4957881;29;20081;-59
2021/03/18 05:30:40;;;;;;;14.95;8.20;;;;;;;;;;4957766;29;20126;-59
2021/03/18 05:33:06;;;;;;;13.00;2.55;;;;;;;;;;4957209;29;20031;-59
2021/03/18 05:35:32;;;;;;;10.18;2.38;;;;;;;;;;4957568;29;20027;-59
2021/03/18 05:37:57;;;;;;;6.40;1.83;;;;;;;;;;4956923;29;20106;-59
2021/03/18 05:40:23;;;;;;;13.43;2.05;;;;;;;;;;4956997;29;20034;-59
2021/03/18 05:42:48;;;;;;;6.82;2.22;;;;;;;;;;4957709;29;20438;-59
2021/03/18 05:45:14;;;;;;;11.13;0.85;;;;;;;;;;4957277;29;20023;-59
2021/03/18 05:47:40;;;;;;;15.18;1.63;;;;;;;;;;4957295;29;20015;-59
2021/03/18 05:50:07;;;;;;;14.18;2.60;;;;;;;;;;4957695;29;20029;-59
2021/03/18 05:52:33;;;;;;;19.23;2.00;;;;;;;;;;4956884;29;20081;-58
2021/03/18 05:54:59;;;;;;;3.22;1.13;;;;;;;;;;4957588;29;20386;-61
2021/03/18 05:57:25;;;;;;;12.35;3.75;;;;;;;;;;4956949;29;20019;-61
2021/03/18 05:59:50;;;;;;;8.77;2.67;;;;;;;;;;4957458;29;20035;-59
2021/03/18 06:02:16;;;;;;;12.25;7.05;;;;;;;;;;4957397;29;20023;-58
2021/03/18 06:04:42;;;;;;;6.22;2.38;;;;;;;;;;4955502;28;20027;-59
2021/03/18 06:07:07;;;;;;;7.82;2.33;;;;;;;;;;4955468;28;20097;-60
2021/03/18 06:09:33;;;;;;;14.15;2.47;;;;;;;;;;4957163;29;20422;-59
2021/03/18 06:11:58;;;;;;;12.65;3.00;;;;;;;;;;4956657;29;20041;-59
2021/03/18 06:14:24;;;;;;;10.75;4.25;;;;;;;;;;4957110;29;20373;-60
2021/03/18 06:16:50;;;;;;;2.53;1.05;;;;;;;;;;4955923;28;20022;-59
2021/03/18 06:19:15;;;;;;;4.90;1.05;;;;;;;;;;4956600;29;20362;-59
2021/03/18 06:21:41;;;;;;;11.25;4.90;;;;;;;;;;4956453;29;20027;-59
2021/03/18 06:24:07;;;;;;;10.05;2.65;;;;;;;;;;4956548;29;20098;-59
2021/03/18 06:26:33;;;;;;;24.90;5.95;;;;;;;;;;4956900;29;20023;-60
2021/03/18 20:00:12;;;;;;;17.63;8.48;;;;;;;;;;5678577;23;20070;-57
2021/03/18 20:02:37;;;;;;;26.88;10.70;;;;;;;;;;4969154;28;20133;-60
2021/03/18 20:05:03;;;;;;;12.82;7.00;;;;;;;;;;4965762;28;20607;-60
2021/03/18 20:07:28;;;;;;;8.90;6.90;;;;;;;;;;4942168;28;20114;-60
2021/03/18 20:09:54;;;;;;;10.82;8.77;;;;;;;;;;4961077;28;20114;-62
2021/03/18 20:12:19;;;;;;;9.90;6.70;;;;;;;;;;4970873;28;20061;-62
2021/03/18 20:14:44;;;;;;;10.57;7.13;;;;;;;;;;4973554;28;20077;-63
2021/03/18 20:17:10;;;;;;;18.73;10.95;;;;;;;;;;4975508;28;20019;-63
2021/03/18 20:19:35;;;;;;;31.25;14.27;;;;;;;;;;4974268;28;20037;-63
2021/03/18 20:22:00;;;;;;;35.60;17.40;;;;;;;;;;4976452;28;20022;-63
2021/03/18 20:24:26;;;;;;;22.65;12.73;;;;;;;;;;4977135;28;20539;-63
2021/03/18 20:26:51;;;;;;;14.73;10.60;;;;;;;;;;4974503;28;20037;-61
2021/03/18 20:29:17;;;;;;;44.38;32.53;;;;;;;;;;4977854;28;20062;-62
2021/03/18 20:31:43;;;;;;;22.00;10.50;;;;;;;;;;4973842;28;20113;-62
2021/03/18 20:34:08;;;;;;;15.20;10.82;;;;;;;;;;4976810;28;20090;-63
2021/03/18 20:36:33;;;;;;;18.92;10.05;;;;;;;;;;4976975;28;20029;-62
2021/03/18 20:38:59;;;;;;;8.63;6.25;;;;;;;;;;4977417;28;20019;-62
2021/03/18 20:41:25;;;;;;;17.33;6.70;;;;;;;;;;4980054;28;20030;-62
2021/03/18 20:43:51;;;;;;;6.43;4.18;;;;;;;;;;4989799;28;20079;-62
2021/03/18 20:46:16;;;;;;;9.75;5.97;;;;;;;;;;4979082;28;20062;-62
2021/03/18 20:48:41;;;;;;;4.30;3.22;;;;;;;;;;4981115;28;20377;-62
2021/03/18 20:51:07;;;;;;;6.07;3.03;;;;;;;;;;4980730;28;20034;-60
2021/03/18 20:53:32;;;;;;;17.17;4.10;;;;;;;;;;4981430;28;20105;-62
2021/03/18 20:55:58;;;;;;;21.33;6.95;;;;;;;;;;4976228;28;20103;-62
2021/03/18 20:58:23;;;;;;;9.70;2.40;;;;;;;;;;4981586;28;20085;-62
2021/03/18 21:00:48;;;;;;;6.78;2.58;;;;;;;;;;4957561;28;20414;-61
2021/03/18 21:03:15;;;;;;;5.20;2.42;;;;;;;;;;4960908;28;20126;-61
2021/03/18 21:05:40;;;;;;;4.28;3.03;;;;;;;;;;4959435;28;20038;-59
2021/03/18 21:08:06;;;;;;;12.07;5.03;;;;;;;;;;4960506;28;20067;-59
2021/03/18 21:10:32;;;;;;;13.30;6.50;;;;;;;;;;4962398;28;20798;-59
2021/03/18 21:12:57;;;;;;;10.43;4.22;;;;;;;;;;4960668;28;20089;-59
2021/03/18 21:15:22;;;;;;;14.38;4.85;;;;;;;;;;4963048;28;20023;-60
2021/03/18 21:17:49;;;;;;;9.60;5.45;;;;;;;;;;4961432;28;20062;-58
2021/03/18 21:20:16;;;;;;;22.60;10.15;;;;;;;;;;4969169;28;20070;-58
2021/03/18 21:22:42;;;;;;;13.45;9.23;;;;;;;;;;4966813;28;20030;-61
2021/03/18 21:25:08;;;;;;;11.02;8.85;;;;;;;;;;4965974;28;20042;-61
2021/03/18 21:27:33;;;;;;;21.02;10.70;;;;;;;;;;4971149;28;20031;-62
2021/03/18 21:29:59;;;;;;;27.05;14.15;;;;;;;;;;4963586;28;20111;-61
2021/03/18 21:32:29;;;;;;;14.95;10.73;;;;;;;;;;4968697;28;20054;-61
2021/03/18 21:34:54;;;;;;;13.43;7.82;;;;;;;;;;4966003;28;20066;-62
2021/03/18 21:37:20;;;;;;;12.23;8.02;;;;;;;;;;4968668;28;20063;-62
2021/03/18 21:39:45;;;;;;;11.02;6.35;;;;;;;;;;4966422;28;20085;-62
2021/03/18 21:42:10;;;;;;;6.03;3.58;;;;;;;;;;4971213;28;20844;-62
2021/03/18 21:44:36;;;;;;;8.18;5.82;;;;;;;;;;4971082;28;20039;-62
2021/03/18 21:47:01;;;;;;;8.23;3.00;;;;;;;;;;4970921;28;20110;-61
2021/03/18 21:49:27;;;;;;;9.88;5.05;;;;;;;;;;4970880;28;20066;-61
2021/03/18 21:51:52;;;;;;;16.55;2.60;;;;;;;;;;4970596;28;20027;-61
2021/03/18 21:54:18;;;;;;;4.68;2.72;;;;;;;;;;4963979;28;20059;-61
2021/03/18 21:56:43;;;;;;;8.07;1.92;;;;;;;;;;4963270;28;20031;-61
2021/03/18 21:59:09;;;;;;;2.50;1.70;;;;;;;;;;4970976;28;20056;-61
2021/03/18 22:01:34;;;;;;;7.50;2.70;;;;;;;;;;4966385;28;20674;-62
2021/03/18 22:03:59;;;;;;;7.95;2.78;;;;;;;;;;4970554;28;20078;-62
2021/03/18 22:06:24;;;;;;;12.45;3.80;;;;;;;;;;4968662;28;20105;-62
2021/03/18 22:08:50;;;;;;;10.98;1.42;;;;;;;;;;4961697;28;20073;-62
2021/03/18 22:11:15;;;;;;;8.52;2.38;;;;;;;;;;4971249;28;20724;-62
2021/03/18 22:13:41;;;;;;;5.72;3.67;;;;;;;;;;4970250;28;20031;-62
2021/03/18 22:16:06;;;;;;;4.82;2.53;;;;;;;;;;4970742;28;20033;-62
2021/03/18 22:18:31;;;;;;;5.85;1.92;;;;;;;;;;4967724;28;20027;-62
2021/03/18 22:20:57;;;;;;;7.65;2.60;;;;;;;;;;4970485;28;20030;-62
2021/03/18 22:23:22;;;;;;;7.53;2.25;;;;;;;;;;4967863;28;20026;-62
2021/03/18 22:25:48;;;;;;;9.23;3.08;;;;;;;;;;4972474;28;20045;-62
2021/03/18 22:28:13;;;;;;;4.38;2.38;;;;;;;;;;4967989;28;20112;-62
2021/03/18 22:30:38;;;;;;;5.13;1.52;;;;;;;;;;4970050;28;20389;-62
2021/03/18 22:33:04;;;;;;;8.70;2.85;;;;;;;;;;4973235;28;20540;-62
2021/03/18 22:35:29;;;;;;;11.55;2.25;;;;;;;;;;4971793;28;20533;-63
2021/03/18 22:37:55;;;;;;;7.82;1.92;;;;;;;;;;4968524;28;20127;-63
2021/03/18 22:40:21;;;;;;;3.35;2.25;;;;;;;;;;4964214;28;20374;-63
2021/03/18 22:42:46;;;;;;;6.63;2.35;;;;;;;;;;4968122;28;20028;-63
2021/03/18 22:45:12;;;;;;;4.13;2.05;;;;;;;;;;4970608;28;20042;-62
2021/03/18 22:47:38;;;;;;;6.65;2.20;;;;;;;;;;4972863;28;20023;-63
2021/03/18 22:50:04;;;;;;;14.00;3.38;;;;;;;;;;4973087;28;20361;-62
2021/03/18 22:52:29;;;;;;;5.50;1.75;;;;;;;;;;4973214;28;20026;-62
2021/03/18 22:54:55;;;;;;;3.45;2.15;;;;;;;;;;4972738;28;20039;-62
2021/03/18 22:57:20;;;;;;;5.28;2.78;;;;;;;;;;4972461;28;20050;-62
2021/03/18 22:59:45;;;;;;;4.55;1.30;;;;;;;;;;4964056;28;20029;-62
2021/03/18 23:02:11;;;;;;;1.58;1.38;;;;;;;;;;4987032;28;20026;-62
2021/03/18 23:04:36;;;;;;;6.18;1.73;;;;;;;;;;4991575;28;20034;-62
2021/03/18 23:07:02;;;;;;;9.68;2.05;;;;;;;;;;4992180;28;20037;-63
2021/03/18 23:09:27;;;;;;;5.43;1.50;;;;;;;;;;4988608;28;20058;-63
2021/03/18 23:11:54;;;;;;;9.43;1.90;;;;;;;;;;4992000;28;20463;-62
2021/03/18 23:14:19;;;;;;;8.07;1.55;;;;;;;;;;4992074;28;20113;-62
2021/03/18 23:19:32;;;;;;;5.50;2.13;;;;;;;;;;4992096;28;20531;-62
2021/03/18 23:22:08;;;;;;;3.63;1.63;;;;;;;;;;4988701;28;20014;-62
2021/03/18 23:24:34;;;;;;;5.57;1.88;;;;;;;;;;4991714;28;20038;-62
2021/03/18 23:26:59;;;;;;;2.33;1.42;;;;;;;;;;4991717;28;20014;-62
2021/03/18 23:29:25;;;;;;;4.43;2.28;;;;;;;;;;4991681;28;20118;-62
2021/03/18 23:31:50;;;;;;;3.28;1.40;;;;;;;;;;4989648;28;20149;-62
2021/03/18 23:34:16;;;;;;;4.90;2.05;;;;;;;;;;4989248;28;20030;-62
2021/03/18 23:36:42;;;;;;;2.97;1.55;;;;;;;;;;4989066;28;20024;-61
2021/03/18 23:39:07;;;;;;;4.43;1.70;;;;;;;;;;4989327;28;20022;-62
2021/03/18 23:41:32;;;;;;;3.58;1.63;;;;;;;;;;4991321;28;20092;-62
2021/03/18 23:43:58;;;;;;;3.38;1.67;;;;;;;;;;4991468;28;20045;-61
2021/03/18 23:46:23;;;;;;;12.88;2.92;;;;;;;;;;4991518;28;20825;-61
2021/03/18 23:48:48;;;;;;;2.08;1.38;;;;;;;;;;4991518;28;20184;-61
2021/03/18 23:51:13;;;;;;;9.05;1.95;;;;;;;;;;4991923;28;20085;-62
2021/03/18 23:53:39;;;;;;;5.55;1.60;;;;;;;;;;4991276;28;20026;-62
2021/03/18 23:56:04;;;;;;;4.28;1.45;;;;;;;;;;4991936;28;20085;-62
2021/03/18 23:58:29;;;;;;;3.75;2.10;;;;;;;;;;4991706;28;20046;-62
